M/V Oriole — WDE6982 — position and weather

sailwx.info

Track history (hours):
 
Tides and Currents Weather Stations Pressure Air Temp Water Temp Dewpoint Dewpoint Depression Visibility Wind Speed Wind Dir Waves Ship Positions

M/V Oriole

Owner: NATIVE SON INC., ST. THOMAS, VI. More information available from US FCC via Universal Licensing System and Coast Guard Vessel Documentation Center.

Last reported at 2016-Apr-29 23:30 UTC. Time now 2016-Apr-30 13:07 UTC.
Position N 18°24' W 064°38'.

Length 25 m.

Type: Passenger vessel. MMSI: 366755670.

Date/timePositionNaut miles runAvg speedWind from/ knotsBaromVisibWave heightAir tempDewpointWater temp
2016-Apr-29 23:30N 18°24' W 064°38'4 2.1
2016-Apr-29 21:33N 18°23' W 064°42'6 6.4
2016-Apr-29 20:33N 18°20' W 064°48'6 3.1
2016-Apr-29 18:33N 18°23' W 064°42'8 1.9
2016-Apr-29 14:19N 18°20' W 064°50'2 2.8
2016-Apr-29 13:33N 18°20' W 064°48'2 1.5
2016-Apr-29 12:23N 18°20' W 064°50'2 2.2
2016-Apr-29 11:29N 18°20' W 064°48'7 0.5
2016-Apr-28 22:29N 18°23' W 064°41'9 8.8
2016-Apr-28 21:29N 18°20' W 064°50'8 7.1
2016-Apr-28 20:20N 18°23' W 064°42'7 2.5
2016-Apr-28 17:27N 18°20' W 064°49'7 7.4
2016-Apr-28 16:30N 18°23' W 064°42'6 2.1
2016-Apr-28 13:30N 18°20' W 064°48'5 5.5
2016-Apr-28 12:33N 18°23' W 064°43'5 4.9
2016-Apr-28 11:28N 18°20' W 064°48'6 0.2
2016-Apr-26 18:33N 18°23' W 064°42'7 1.8
2016-Apr-26 14:20N 18°20' W 064°49'11 0.6
2016-Apr-25 22:07N 18°23' W 064°39'915.9
2016-Apr-25 21:32N 18°21' W 064°48'1 1.1
2016-Apr-25 20:29N 18°20' W 064°48'3 2.8
2016-Apr-25 19:33N 18°22' W 064°46'4 1.8
2016-Apr-25 17:27N 18°20' W 064°49'8 7.8
2016-Apr-25 16:28N 18°23' W 064°42'6 2.0
2016-Apr-25 13:21N 18°20' W 064°48'5 5.7
2016-Apr-25 12:33N 18°23' W 064°44'5 4.6
2016-Apr-25 11:33N 18°20' W 064°48'6 6.0
2016-Apr-25 10:33N 18°23' W 064°42'4 0.4
2016-Apr-24 23:09N 18°24' W 064°38'1117.0
2016-Apr-24 22:30N 18°20' W 064°49'1 0.3
2016-Apr-24 20:05N 18°20' W 064°49'6 3.7
2016-Apr-24 18:33N 18°23' W 064°44'6 1.4
2016-Apr-24 14:33N 18°20' W 064°49'7 0.4
2016-Apr-23 21:32N 18°23' W 064°42'8 7.1
2016-Apr-23 20:24N 18°20' W 064°50'5 5.8
2016-Apr-23 19:33N 18°22' W 064°45'4 1.6
2016-Apr-23 17:11N 18°20' W 064°48'7 8.2
2016-Apr-23 16:22N 18°23' W 064°42'8 2.8
2016-Apr-23 13:27N 18°20' W 064°50'8 9.0
2016-Apr-23 12:34N 18°23' W 064°42'6 6.0
2016-Apr-23 11:32N 18°20' W 064°48'6 0.2
2016-Apr-21 18:33N 18°23' W 064°42'7 1.8
2016-Apr-21 14:27N 18°20' W 064°49'10 3.3
2016-Apr-21 11:21N 18°23' W 064°39'1 0.1
2016-Apr-20 18:14N 18°24' W 064°38'1014.7
2016-Apr-20 17:33N 18°21' W 064°48'6 5.3
2016-Apr-20 16:24N 18°23' W 064°42'8 3.7
2016-Apr-20 14:19N 18°20' W 064°49'11 3.6
2016-Apr-20 11:12N 18°23' W 064°38'  
Track history (hours):
 
Tides and Currents Weather Stations Pressure Air Temp Water Temp Dewpoint Dewpoint Depression Visibility Wind Speed Wind Dir Waves Ship Positions

M/V Oriole

Owner: NATIVE SON INC., ST. THOMAS, VI. More information available from US FCC via Universal Licensing System and Coast Guard Vessel Documentation Center.

Last reported at 2016-Apr-29 23:30 UTC. Time now 2016-Apr-30 13:07 UTC.
Position N 18°24' W 064°38'.

Length 25 m.

Type: Passenger vessel. MMSI: 366755670.

Date/timePositionNaut miles runAvg speedWind from/ knotsBaromVisibWave heightAir tempDewpointWater temp
2016-Apr-29 23:30N 18°24' W 064°38'4 2.1
2016-Apr-29 21:33N 18°23' W 064°42'6 6.4
2016-Apr-29 20:33N 18°20' W 064°48'6 3.1
2016-Apr-29 18:33N 18°23' W 064°42'8 1.9
2016-Apr-29 14:19N 18°20' W 064°50'2 2.8
2016-Apr-29 13:33N 18°20' W 064°48'2 1.5
2016-Apr-29 12:23N 18°20' W 064°50'2 2.2
2016-Apr-29 11:29N 18°20' W 064°48'7 0.5
2016-Apr-28 22:29N 18°23' W 064°41'9 8.8
2016-Apr-28 21:29N 18°20' W 064°50'8 7.1
2016-Apr-28 20:20N 18°23' W 064°42'7 2.5
2016-Apr-28 17:27N 18°20' W 064°49'7 7.4
2016-Apr-28 16:30N 18°23' W 064°42'6 2.1
2016-Apr-28 13:30N 18°20' W 064°48'5 5.5
2016-Apr-28 12:33N 18°23' W 064°43'5 4.9
2016-Apr-28 11:28N 18°20' W 064°48'6 0.2
2016-Apr-26 18:33N 18°23' W 064°42'7 1.8
2016-Apr-26 14:20N 18°20' W 064°49'11 0.6
2016-Apr-25 22:07N 18°23' W 064°39'915.9
2016-Apr-25 21:32N 18°21' W 064°48'1 1.1
2016-Apr-25 20:29N 18°20' W 064°48'3 2.8
2016-Apr-25 19:33N 18°22' W 064°46'4 1.8
2016-Apr-25 17:27N 18°20' W 064°49'8 7.8
2016-Apr-25 16:28N 18°23' W 064°42'6 2.0
2016-Apr-25 13:21N 18°20' W 064°48'5 5.7
2016-Apr-25 12:33N 18°23' W 064°44'5 4.6
2016-Apr-25 11:33N 18°20' W 064°48'6 6.0
2016-Apr-25 10:33N 18°23' W 064°42'4 0.4
2016-Apr-24 23:09N 18°24' W 064°38'1117.0
2016-Apr-24 22:30N 18°20' W 064°49'1 0.3
2016-Apr-24 20:05N 18°20' W 064°49'6 3.7
2016-Apr-24 18:33N 18°23' W 064°44'6 1.4
2016-Apr-24 14:33N 18°20' W 064°49'7 0.4
2016-Apr-23 21:32N 18°23' W 064°42'8 7.1
2016-Apr-23 20:24N 18°20' W 064°50'5 5.8
2016-Apr-23 19:33N 18°22' W 064°45'4 1.6
2016-Apr-23 17:11N 18°20' W 064°48'7 8.2
2016-Apr-23 16:22N 18°23' W 064°42'8 2.8
2016-Apr-23 13:27N 18°20' W 064°50'8 9.0
2016-Apr-23 12:34N 18°23' W 064°42'6 6.0
2016-Apr-23 11:32N 18°20' W 064°48'6 0.2
2016-Apr-21 18:33N 18°23' W 064°42'7 1.8
2016-Apr-21 14:27N 18°20' W 064°49'10 3.3
2016-Apr-21 11:21N 18°23' W 064°39'1 0.1
2016-Apr-20 18:14N 18°24' W 064°38'1014.7
2016-Apr-20 17:33N 18°21' W 064°48'6 5.3
2016-Apr-20 16:24N 18°23' W 064°42'8 3.7
2016-Apr-20 14:19N 18°20' W 064°49'11 3.6
2016-Apr-20 11:12N 18°23' W 064°38'  

Dump ship's entire track history